createdAt,value
2023-03-24T16:43:06.685Z,57.34
2023-03-24T16:46:54.626Z,63.24
2023-03-24T16:50:54.547Z,58.19
2023-03-24T16:54:54.531Z,67.49
2023-03-24T16:58:54.495Z,65.84
2023-03-24T17:02:54.520Z,67.54
2023-03-24T17:06:54.668Z,70.27
2023-03-24T17:10:54.389Z,70.86
2023-03-24T17:14:54.335Z,68.33
2023-03-24T17:18:54.295Z,68.38
2023-03-24T17:22:54.260Z,69.75
2023-03-24T17:26:54.254Z,70.88
2023-03-24T17:30:54.195Z,66.35
2023-03-24T17:34:54.152Z,58.50
2023-03-24T17:38:54.114Z,60.84
2023-03-24T17:42:54.112Z,59.19
2023-03-24T17:46:54.120Z,63.11
2023-03-24T17:50:54.031Z,62.13
2023-03-24T17:54:53.968Z,62.58
2023-03-24T17:58:54.013Z,61.26
2023-03-24T18:02:54.140Z,67.69
2023-03-24T18:06:54.007Z,67.11
2023-03-24T18:10:53.971Z,64.03
2023-03-24T18:14:53.906Z,62.51
2023-03-24T18:18:53.872Z,73.08
2023-03-24T18:22:53.847Z,76.13
2023-03-24T18:26:53.815Z,72.49
2023-03-24T18:30:53.779Z,74.41
2023-03-24T18:34:53.723Z,76.46
2023-03-24T18:38:53.747Z,78.30
2023-03-24T18:42:53.676Z,81.48
2023-03-24T18:46:53.618Z,75.79
2023-03-24T18:50:53.610Z,81.46
2023-03-24T18:54:53.551Z,77.27
2023-03-24T18:58:53.524Z,81.12
2023-03-24T19:02:53.545Z,80.61
2023-03-24T19:06:53.496Z,79.72
2023-03-24T19:10:53.425Z,81.89
2023-03-24T19:14:53.392Z,78.03
2023-03-24T19:18:53.366Z,78.74
2023-03-24T19:22:53.340Z,77.75
2023-03-24T19:26:53.299Z,81.71
2023-03-24T19:30:53.286Z,78.95
2023-03-24T19:34:53.322Z,78.92
2023-03-24T19:38:53.468Z,78.80
2023-03-24T19:42:53.579Z,78.08
2023-03-24T19:46:53.657Z,75.35
2023-03-24T19:50:53.797Z,74.75
2023-03-24T19:54:53.879Z,76.61
2023-03-24T19:58:53.911Z,72.79
2023-03-24T20:02:54.157Z,75.18
2023-03-24T20:06:54.159Z,74.56
2023-03-24T20:10:54.256Z,74.17
2023-03-24T20:14:54.337Z,71.05
2023-03-24T20:18:54.441Z,79.27
2023-03-24T20:22:54.567Z,75.43
2023-03-24T20:26:54.714Z,74.82
2023-03-24T20:30:54.767Z,76.26
2023-03-24T20:34:54.838Z,76.51
2023-03-24T20:38:54.918Z,78.21
2023-03-24T20:42:54.965Z,71.37
2023-03-24T20:46:54.908Z,69.85
2023-03-24T20:50:54.913Z,66.48
2023-03-24T20:54:54.913Z,69.08
2023-03-24T20:58:55.017Z,66.72
2023-03-24T21:02:55.406Z,68.61
2023-03-24T21:06:55.371Z,73.44
2023-03-24T21:10:55.507Z,66.60
2023-03-24T21:14:55.815Z,68.92
2023-03-24T21:18:55.818Z,64.30
2023-03-24T21:22:55.939Z,68.58
2023-03-24T21:26:55.886Z,70.34
2023-03-24T21:30:55.931Z,68.94
2023-03-24T21:34:55.921Z,68.13
2023-03-24T21:38:56.103Z,69.64
2023-03-24T21:42:56.151Z,70.47
2023-03-24T21:46:56.196Z,65.15
2023-03-24T21:50:56.245Z,62.68
2023-03-24T21:54:56.383Z,66.27
2023-03-24T21:58:56.383Z,59.20
2023-03-24T22:02:56.415Z,64.58
2023-03-24T22:06:56.392Z,63.80
2023-03-24T22:10:56.389Z,64.70
2023-03-24T22:14:56.443Z,59.33
2023-03-24T22:18:56.390Z,67.47
2023-03-24T22:22:56.420Z,66.14
2023-03-24T22:26:56.543Z,67.00
2023-03-24T22:30:56.556Z,65.89
2023-03-24T22:34:56.786Z,66.15
2023-03-24T22:38:56.941Z,64.96
2023-03-24T22:42:57.140Z,59.61
2023-03-24T22:46:57.170Z,63.32
2023-03-24T22:50:57.360Z,67.00
2023-03-24T22:54:57.550Z,65.56
2023-03-24T22:58:57.754Z,61.90
2023-03-24T23:02:58.030Z,65.89
2023-03-24T23:06:58.170Z,61.83
2023-03-24T23:10:58.236Z,60.90
2023-03-24T23:14:58.237Z,64.82
2023-03-24T23:18:58.274Z,62.35
2023-03-24T23:22:58.301Z,58.99
2023-03-24T23:26:58.357Z,54.32
2023-03-24T23:30:58.442Z,56.42
2023-03-24T23:34:58.480Z,53.77
2023-03-24T23:38:58.469Z,56.23
2023-03-24T23:42:58.504Z,57.60
2023-03-24T23:46:58.594Z,58.24
2023-03-24T23:50:58.809Z,55.29
2023-03-24T23:54:58.902Z,60.75
2023-03-24T23:58:59.073Z,58.90
